createdAt,value
2022-08-05T00:06:05.047Z,100.00
2022-08-05T00:21:08.541Z,100.00
2022-08-05T00:36:16.258Z,100.00
2022-08-05T00:51:50.527Z,100.00
2022-08-05T01:06:55.078Z,100.00
2022-08-05T01:22:00.411Z,100.00
2022-08-05T01:37:24.426Z,100.00
2022-08-05T01:52:28.368Z,100.00
2022-08-05T02:07:34.127Z,100.00
2022-08-05T02:22:42.497Z,100.00
2022-08-05T02:37:47.869Z,100.00
2022-08-05T02:52:56.446Z,100.00
2022-08-05T03:08:06.682Z,100.00
2022-08-05T03:23:11.315Z,100.00
2022-08-05T03:38:16.410Z,100.00
2022-08-05T03:55:51.937Z,100.00
2022-08-05T04:08:57.284Z,100.00
2022-08-05T04:24:06.601Z,100.00
2022-08-05T04:39:10.790Z,100.00
2022-08-05T04:54:15.313Z,98.62
2022-08-05T05:09:18.404Z,94.95
2022-08-05T05:24:22.013Z,95.90
2022-08-05T05:39:24.269Z,92.88
2022-08-05T05:54:33.541Z,89.35
2022-08-05T06:10:01.403Z,85.50
2022-08-05T06:25:25.323Z,88.42
2022-08-05T06:40:32.610Z,86.71
2022-08-05T06:55:36.394Z,84.42
2022-08-05T07:10:53.235Z,80.52
2022-08-05T07:25:56.956Z,78.89
2022-08-05T07:41:04.533Z,75.79
2022-08-05T07:57:00.162Z,77.02
2022-08-05T08:11:48.183Z,76.26
2022-08-05T08:26:57.230Z,70.98
2022-08-05T08:42:02.202Z,63.70
2022-08-05T08:57:11.519Z,66.66
2022-08-05T09:12:20.552Z,64.99
2022-08-05T09:28:03.758Z,64.35
2022-08-05T09:43:08.458Z,64.79
2022-08-05T09:58:15.479Z,55.58
2022-08-05T10:13:45.817Z,50.13
2022-08-05T10:28:51.246Z,55.04
2022-08-05T10:44:02.105Z,55.59
2022-08-05T11:00:01.137Z,51.38
2022-08-05T11:14:57.809Z,50.65
2022-08-05T11:30:00.880Z,44.18
2022-08-05T11:45:05.651Z,47.14
2022-08-05T12:00:28.814Z,50.68
2022-08-05T12:15:38.087Z,51.38
2022-08-05T12:30:45.826Z,48.86
2022-08-05T12:45:56.396Z,52.63
2022-08-05T13:01:59.710Z,49.55
2022-08-05T13:16:24.917Z,45.37
2022-08-05T13:31:34.152Z,62.94
2022-08-05T13:47:04.592Z,65.62
2022-08-05T14:02:08.874Z,75.24
2022-08-05T14:17:26.499Z,81.67
2022-08-05T14:32:31.916Z,91.41
2022-08-05T14:48:03.543Z,98.46
2022-08-05T15:02:58.198Z,100.00
2022-08-05T15:18:03.596Z,100.00
2022-08-05T15:33:06.745Z,100.00
2022-08-05T15:48:10.173Z,100.00
2022-08-05T16:03:16.503Z,100.00
2022-08-05T16:18:28.988Z,100.00
2022-08-05T16:33:41.380Z,100.00
2022-08-05T16:48:43.891Z,100.00
2022-08-05T17:03:45.837Z,100.00
2022-08-05T17:18:47.710Z,100.00
2022-08-05T17:33:50.960Z,100.00
2022-08-05T17:48:53.663Z,100.00
2022-08-05T18:04:03.562Z,100.00
2022-08-05T18:19:07.701Z,100.00
2022-08-05T18:34:12.808Z,100.00
2022-08-05T18:49:44.578Z,100.00
2022-08-05T19:05:03.220Z,100.00
2022-08-05T19:20:21.654Z,100.00
2022-08-05T19:35:25.828Z,100.00
2022-08-05T19:50:47.761Z,100.00
2022-08-05T20:05:51.318Z,100.00
2022-08-05T20:20:55.049Z,100.00
2022-08-05T20:35:58.404Z,100.00
2022-08-05T20:51:00.293Z,100.00
2022-08-05T21:06:27.864Z,100.00
2022-08-05T21:21:39.165Z,100.00
2022-08-05T21:36:46.664Z,100.00
2022-08-05T21:52:22.649Z,100.00
2022-08-05T22:07:13.102Z,100.00
2022-08-05T22:22:16.122Z,100.00
2022-08-05T22:37:18.200Z,100.00
2022-08-05T22:52:30.192Z,100.00
2022-08-05T23:07:44.875Z,100.00
2022-08-05T23:22:50.000Z,100.00
2022-08-05T23:37:58.017Z,100.00
2022-08-05T23:53:03.237Z,100.00
